Terminal Aerodrome Forecast
Issued by NWS Mt. Holly, NJ

Home | Current Version | Previous Version | Text Only | Print | Product List | Glossary On
Versions: 1 2 3 4 5 6 7 8 9 10 11 12 13 14 15 16 17 18 19 20
000
FTUS41 KPHI 282335
TAFACY
TAF
KACY 282335Z 2900/2924 06013G23KT 4SM -RA BR BKN005
      TEMPO 2900/2904 1 1/2SM -RA BR
     FM290400 06012G22KT 5SM -SHRA BR OVC005
     FM290700 05012G22KT 5SM -DZRA BR OVC005
     FM291400 07012G24KT 6SM -SHRA OVC011
     FM291800 08013G28KT P6SM -SHRA OVC015=

USA.gov is the U.S. government's official web portal to all federal, state and local government web resources and services.